sensor_id;sensor_type;location;lat;lon;timestamp;P1;durP1;ratioP1;P2;durP2;ratioP2
60873;SDS011;46715;40.642;-7.920;2022-12-29T00:01:24;14.93;;;6.87;;
60873;SDS011;46715;40.642;-7.920;2022-12-29T00:03:25;15.23;;;7.53;;
60873;SDS011;46715;40.642;-7.920;2022-12-29T00:05:26;12.60;;;6.93;;
60873;SDS011;46715;40.642;-7.920;2022-12-29T00:07:26;17.33;;;6.70;;
60873;SDS011;46715;40.642;-7.920;2022-12-29T00:09:27;15.33;;;7.07;;
60873;SDS011;46715;40.642;-7.920;2022-12-29T00:11:28;10.63;;;6.43;;
60873;SDS011;46715;40.642;-7.920;2022-12-29T00:13:29;12.70;;;6.20;;
60873;SDS011;46715;40.642;-7.920;2022-12-29T00:15:49;14.90;;;6.72;;
60873;SDS011;46715;40.642;-7.920;2022-12-29T00:17:49;10.77;;;5.63;;
60873;SDS011;46715;40.642;-7.920;2022-12-29T00:19:50;12.30;;;5.73;;
60873;SDS011;46715;40.642;-7.920;2022-12-29T00:22:13;14.48;;;6.03;;
60873;SDS011;46715;40.642;-7.920;2022-12-29T00:24:34;8.93;;;5.55;;
60873;SDS011;46715;40.642;-7.920;2022-12-29T00:26:57;11.80;;;5.85;;
60873;SDS011;46715;40.642;-7.920;2022-12-29T00:29:20;12.88;;;7.22;;
60873;SDS011;46715;40.642;-7.920;2022-12-29T00:31:39;14.65;;;6.95;;
60873;SDS011;46715;40.642;-7.920;2022-12-29T00:34:01;15.10;;;6.75;;
60873;SDS011;46715;40.642;-7.920;2022-12-29T00:36:22;11.02;;;6.15;;
60873;SDS011;46715;40.642;-7.920;2022-12-29T00:38:26;12.73;;;6.40;;
60873;SDS011;46715;40.642;-7.920;2022-12-29T00:40:47;12.73;;;7.13;;
60873;SDS011;46715;40.642;-7.920;2022-12-29T00:43:07;19.50;;;7.60;;
60873;SDS011;46715;40.642;-7.920;2022-12-29T00:45:26;17.95;;;8.00;;
60873;SDS011;46715;40.642;-7.920;2022-12-29T00:47:28;25.88;;;7.43;;
60873;SDS011;46715;40.642;-7.920;2022-12-29T00:49:28;30.23;;;7.70;;
60873;SDS011;46715;40.642;-7.920;2022-12-29T00:51:33;37.38;;;8.27;;
60873;SDS011;46715;40.642;-7.920;2022-12-29T00:53:33;32.10;;;7.07;;
60873;SDS011;46715;40.642;-7.920;2022-12-29T00:55:37;65.33;;;9.53;;
60873;SDS011;46715;40.642;-7.920;2022-12-29T00:57:40;16.83;;;6.15;;
60873;SDS011;46715;40.642;-7.920;2022-12-29T00:59:42;27.77;;;7.63;;
60873;SDS011;46715;40.642;-7.920;2022-12-29T01:01:42;14.17;;;7.70;;
60873;SDS011;46715;40.642;-7.920;2022-12-29T01:03:43;42.77;;;9.47;;
60873;SDS011;46715;40.642;-7.920;2022-12-29T01:05:45;9.80;;;5.47;;
60873;SDS011;46715;40.642;-7.920;2022-12-29T01:07:46;6.50;;;4.72;;
60873;SDS011;46715;40.642;-7.920;2022-12-29T01:09:47;7.03;;;5.87;;
60873;SDS011;46715;40.642;-7.920;2022-12-29T01:12:10;11.75;;;6.20;;
60873;SDS011;46715;40.642;-7.920;2022-12-29T01:14:11;14.68;;;6.78;;
60873;SDS011;46715;40.642;-7.920;2022-12-29T01:16:12;48.60;;;9.57;;
60873;SDS011;46715;40.642;-7.920;2022-12-29T01:18:13;114.30;;;14.63;;
60873;SDS011;46715;40.642;-7.920;2022-12-29T01:20:13;139.20;;;14.63;;
60873;SDS011;46715;40.642;-7.920;2022-12-29T01:22:14;176.90;;;16.60;;
60873;SDS011;46715;40.642;-7.920;2022-12-29T01:24:15;276.00;;;22.40;;
60873;SDS011;46715;40.642;-7.920;2022-12-29T01:26:18;254.48;;;18.17;;
60873;SDS011;46715;40.642;-7.920;2022-12-29T01:28:19;33.05;;;9.95;;
60873;SDS011;46715;40.642;-7.920;2022-12-29T01:30:20;17.10;;;7.83;;
60873;SDS011;46715;40.642;-7.920;2022-12-29T01:32:27;16.85;;;7.82;;
60873;SDS011;46715;40.642;-7.920;2022-12-29T01:34:27;12.57;;;8.77;;
60873;SDS011;46715;40.642;-7.920;2022-12-29T01:38:30;231.02;;;20.77;;
60873;SDS011;46715;40.642;-7.920;2022-12-29T01:40:31;314.38;;;26.77;;
60873;SDS011;46715;40.642;-7.920;2022-12-29T01:42:32;284.73;;;21.07;;
60873;SDS011;46715;40.642;-7.920;2022-12-29T01:46:55;560.97;;;43.17;;
60873;SDS011;46715;40.642;-7.920;2022-12-29T01:51:19;549.15;;;40.72;;
60873;SDS011;46715;40.642;-7.920;2022-12-29T01:53:27;471.67;;;34.10;;
60873;SDS011;46715;40.642;-7.920;2022-12-29T01:55:33;94.97;;;10.65;;
60873;SDS011;46715;40.642;-7.920;2022-12-29T01:57:40;396.65;;;27.33;;
60873;SDS011;46715;40.642;-7.920;2022-12-29T01:59:49;208.23;;;17.20;;
60873;SDS011;46715;40.642;-7.920;2022-12-29T02:01:58;82.43;;;11.90;;
60873;SDS011;46715;40.642;-7.920;2022-12-29T02:04:00;103.63;;;11.43;;
60873;SDS011;46715;40.642;-7.920;2022-12-29T02:06:02;293.73;;;23.95;;
60873;SDS011;46715;40.642;-7.920;2022-12-29T02:08:04;394.38;;;30.13;;
60873;SDS011;46715;40.642;-7.920;2022-12-29T02:10:08;353.17;;;24.85;;
60873;SDS011;46715;40.642;-7.920;2022-12-29T02:12:09;386.70;;;29.60;;
60873;SDS011;46715;40.642;-7.920;2022-12-29T02:14:10;508.50;;;39.83;;
60873;SDS011;46715;40.642;-7.920;2022-12-29T02:16:22;116.85;;;11.45;;
60873;SDS011;46715;40.642;-7.920;2022-12-29T02:18:34;206.00;;;15.70;;
60873;SDS011;46715;40.642;-7.920;2022-12-29T02:31:46;342.83;;;26.13;;
60873;SDS011;46715;40.642;-7.920;2022-12-29T02:34:05;401.50;;;30.20;;
60873;SDS011;46715;40.642;-7.920;2022-12-29T02:37:04;422.52;;;32.22;;
60873;SDS011;46715;40.642;-7.920;2022-12-29T02:39:52;189.43;;;14.57;;
60873;SDS011;46715;40.642;-7.920;2022-12-29T02:44:16;199.70;;;14.68;;
60873;SDS011;46715;40.642;-7.920;2022-12-29T02:48:38;323.38;;;22.67;;
60873;SDS011;46715;40.642;-7.920;2022-12-29T02:51:08;190.07;;;15.63;;
60873;SDS011;46715;40.642;-7.920;2022-12-29T02:53:11;16.70;;;6.72;;
60873;SDS011;46715;40.642;-7.920;2022-12-29T02:55:15;27.42;;;6.60;;
60873;SDS011;46715;40.642;-7.920;2022-12-29T02:59:23;10.73;;;6.28;;
60873;SDS011;46715;40.642;-7.920;2022-12-29T03:09:15;57.22;;;8.23;;
60873;SDS011;46715;40.642;-7.920;2022-12-29T03:11:33;85.97;;;9.35;;
60873;SDS011;46715;40.642;-7.920;2022-12-29T03:14:08;332.48;;;24.05;;
60873;SDS011;46715;40.642;-7.920;2022-12-29T03:18:51;125.18;;;11.73;;
60873;SDS011;46715;40.642;-7.920;2022-12-29T03:23:58;10.32;;;3.95;;
60873;SDS011;46715;40.642;-7.920;2022-12-29T03:25:59;5.33;;;3.20;;
60873;SDS011;46715;40.642;-7.920;2022-12-29T03:28:07;11.65;;;3.50;;
60873;SDS011;46715;40.642;-7.920;2022-12-29T03:30:16;42.40;;;5.53;;
60873;SDS011;46715;40.642;-7.920;2022-12-29T03:32:18;17.48;;;4.20;;
60873;SDS011;46715;40.642;-7.920;2022-12-29T03:34:21;25.35;;;5.85;;
60873;SDS011;46715;40.642;-7.920;2022-12-29T03:36:29;96.15;;;9.25;;
60873;SDS011;46715;40.642;-7.920;2022-12-29T03:38:46;9.00;;;4.53;;
60873;SDS011;46715;40.642;-7.920;2022-12-29T03:40:57;10.02;;;3.97;;
60873;SDS011;46715;40.642;-7.920;2022-12-29T03:43:01;19.85;;;4.82;;
60873;SDS011;46715;40.642;-7.920;2022-12-29T03:45:06;13.70;;;4.55;;
60873;SDS011;46715;40.642;-7.920;2022-12-29T03:47:08;8.15;;;4.30;;
60873;SDS011;46715;40.642;-7.920;2022-12-29T03:49:12;6.70;;;3.75;;
60873;SDS011;46715;40.642;-7.920;2022-12-29T03:51:13;15.73;;;4.50;;
60873;SDS011;46715;40.642;-7.920;2022-12-29T03:53:14;166.88;;;12.25;;
60873;SDS011;46715;40.642;-7.920;2022-12-29T03:55:16;169.57;;;12.30;;
60873;SDS011;46715;40.642;-7.920;2022-12-29T03:57:17;156.80;;;14.00;;
60873;SDS011;46715;40.642;-7.920;2022-12-29T03:59:38;26.92;;;4.82;;
60873;SDS011;46715;40.642;-7.920;2022-12-29T04:01:39;7.23;;;3.40;;
60873;SDS011;46715;40.642;-7.920;2022-12-29T04:03:39;3.40;;;2.90;;
60873;SDS011;46715;40.642;-7.920;2022-12-29T04:05:41;7.68;;;3.25;;
60873;SDS011;46715;40.642;-7.920;2022-12-29T04:07:42;6.63;;;2.70;;
60873;SDS011;46715;40.642;-7.920;2022-12-29T04:09:42;8.37;;;3.50;;
60873;SDS011;46715;40.642;-7.920;2022-12-29T04:11:48;25.77;;;4.57;;
60873;SDS011;46715;40.642;-7.920;2022-12-29T04:13:49;72.60;;;7.00;;
60873;SDS011;46715;40.642;-7.920;2022-12-29T04:15:54;30.05;;;5.13;;
60873;SDS011;46715;40.642;-7.920;2022-12-29T04:17:56;221.98;;;14.57;;
60873;SDS011;46715;40.642;-7.920;2022-12-29T04:19:57;242.77;;;15.60;;
60873;SDS011;46715;40.642;-7.920;2022-12-29T04:22:17;248.73;;;18.92;;
60873;SDS011;46715;40.642;-7.920;2022-12-29T04:24:18;121.80;;;9.27;;
60873;SDS011;46715;40.642;-7.920;2022-12-29T04:26:22;64.15;;;7.10;;
60873;SDS011;46715;40.642;-7.920;2022-12-29T04:28:30;42.97;;;5.22;;
60873;SDS011;46715;40.642;-7.920;2022-12-29T04:30:31;3.77;;;2.50;;
60873;SDS011;46715;40.642;-7.920;2022-12-29T04:32:41;17.77;;;3.50;;
60873;SDS011;46715;40.642;-7.920;2022-12-29T04:34:42;5.17;;;2.77;;
60873;SDS011;46715;40.642;-7.920;2022-12-29T04:36:43;41.40;;;5.07;;
60873;SDS011;46715;40.642;-7.920;2022-12-29T04:38:44;34.80;;;4.35;;
60873;SDS011;46715;40.642;-7.920;2022-12-29T04:40:45;39.37;;;4.83;;
60873;SDS011;46715;40.642;-7.920;2022-12-29T04:42:46;26.60;;;3.45;;
60873;SDS011;46715;40.642;-7.920;2022-12-29T04:44:47;49.30;;;5.10;;
60873;SDS011;46715;40.642;-7.920;2022-12-29T04:46:56;14.18;;;3.13;;
60873;SDS011;46715;40.642;-7.920;2022-12-29T04:49:16;3.20;;;2.05;;
60873;SDS011;46715;40.642;-7.920;2022-12-29T04:51:49;6.53;;;2.17;;
60873;SDS011;46715;40.642;-7.920;2022-12-29T04:53:51;9.88;;;1.98;;
60873;SDS011;46715;40.642;-7.920;2022-12-29T04:55:52;2.33;;;1.57;;
60873;SDS011;46715;40.642;-7.920;2022-12-29T04:57:54;5.40;;;1.75;;
60873;SDS011;46715;40.642;-7.920;2022-12-29T04:59:55;1.83;;;1.35;;
60873;SDS011;46715;40.642;-7.920;2022-12-29T05:01:56;2.47;;;0.88;;
60873;SDS011;46715;40.642;-7.920;2022-12-29T05:03:57;1.30;;;1.10;;
60873;SDS011;46715;40.642;-7.920;2022-12-29T05:06:01;1.10;;;0.80;;
60873;SDS011;46715;40.642;-7.920;2022-12-29T05:08:03;1.48;;;0.90;;
60873;SDS011;46715;40.642;-7.920;2022-12-29T05:10:05;1.05;;;0.70;;
60873;SDS011;46715;40.642;-7.920;2022-12-29T05:12:06;0.98;;;0.88;;
60873;SDS011;46715;40.642;-7.920;2022-12-29T05:14:11;1.42;;;0.95;;
60873;SDS011;46715;40.642;-7.920;2022-12-29T05:16:12;2.37;;;0.80;;
60873;SDS011;46715;40.642;-7.920;2022-12-29T05:18:13;2.25;;;1.05;;
60873;SDS011;46715;40.642;-7.920;2022-12-29T05:20:14;2.13;;;0.93;;
60873;SDS011;46715;40.642;-7.920;2022-12-29T05:24:18;1.73;;;1.13;;
60873;SDS011;46715;40.642;-7.920;2022-12-29T05:26:19;1.20;;;1.10;;
60873;SDS011;46715;40.642;-7.920;2022-12-29T05:28:48;1.65;;;1.05;;
60873;SDS011;46715;40.642;-7.920;2022-12-29T05:30:52;2.22;;;1.30;;
60873;SDS011;46715;40.642;-7.920;2022-12-29T05:32:53;1.97;;;1.30;;
60873;SDS011;46715;40.642;-7.920;2022-12-29T05:34:54;2.58;;;1.20;;
60873;SDS011;46715;40.642;-7.920;2022-12-29T05:36:56;1.52;;;1.30;;
60873;SDS011;46715;40.642;-7.920;2022-12-29T05:40:58;3.15;;;1.33;;
60873;SDS011;46715;40.642;-7.920;2022-12-29T05:43:29;2.00;;;1.48;;
60873;SDS011;46715;40.642;-7.920;2022-12-29T05:45:49;3.38;;;1.42;;
60873;SDS011;46715;40.642;-7.920;2022-12-29T05:48:16;4.03;;;2.00;;
60873;SDS011;46715;40.642;-7.920;2022-12-29T05:50:36;1.33;;;1.02;;
60873;SDS011;46715;40.642;-7.920;2022-12-29T05:52:45;5.00;;;1.20;;
60873;SDS011;46715;40.642;-7.920;2022-12-29T05:54:46;1.98;;;1.10;;
60873;SDS011;46715;40.642;-7.920;2022-12-29T05:56:51;2.92;;;0.98;;
60873;SDS011;46715;40.642;-7.920;2022-12-29T05:58:52;1.43;;;0.90;;
60873;SDS011;46715;40.642;-7.920;2022-12-29T06:00:52;2.87;;;1.20;;
60873;SDS011;46715;40.642;-7.920;2022-12-29T06:02:53;3.10;;;1.50;;
60873;SDS011;46715;40.642;-7.920;2022-12-29T06:04:55;3.35;;;1.38;;
60873;SDS011;46715;40.642;-7.920;2022-12-29T06:06:57;2.85;;;1.15;;
60873;SDS011;46715;40.642;-7.920;2022-12-29T06:09:19;1.50;;;0.90;;
60873;SDS011;46715;40.642;-7.920;2022-12-29T06:11:19;1.93;;;0.70;;
60873;SDS011;46715;40.642;-7.920;2022-12-29T06:13:27;0.93;;;0.65;;
60873;SDS011;46715;40.642;-7.920;2022-12-29T06:15:30;0.85;;;0.70;;
60873;SDS011;46715;40.642;-7.920;2022-12-29T06:17:31;0.60;;;0.55;;
60873;SDS011;46715;40.642;-7.920;2022-12-29T06:19:33;1.63;;;0.68;;
60873;SDS011;46715;40.642;-7.920;2022-12-29T06:21:36;1.73;;;0.90;;
60873;SDS011;46715;40.642;-7.920;2022-12-29T06:23:38;2.85;;;1.30;;
60873;SDS011;46715;40.642;-7.920;2022-12-29T06:25:39;2.67;;;1.30;;
60873;SDS011;46715;40.642;-7.920;2022-12-29T06:27:39;2.10;;;1.45;;
60873;SDS011;46715;40.642;-7.920;2022-12-29T06:36:21;3.17;;;2.40;;
60873;SDS011;46715;40.642;-7.920;2022-12-29T06:38:22;3.20;;;2.58;;
60873;SDS011;46715;40.642;-7.920;2022-12-29T06:40:24;3.65;;;2.92;;
60873;SDS011;46715;40.642;-7.920;2022-12-29T06:42:40;6.43;;;2.70;;
60873;SDS011;46715;40.642;-7.920;2022-12-29T06:44:59;3.47;;;2.58;;
60873;SDS011;46715;40.642;-7.920;2022-12-29T06:47:00;4.40;;;2.95;;
60873;SDS011;46715;40.642;-7.920;2022-12-29T06:49:01;3.22;;;2.65;;
60873;SDS011;46715;40.642;-7.920;2022-12-29T06:51:02;5.67;;;3.20;;
60873;SDS011;46715;40.642;-7.920;2022-12-29T06:53:03;3.57;;;2.77;;
60873;SDS011;46715;40.642;-7.920;2022-12-29T06:55:04;9.63;;;2.80;;
60873;SDS011;46715;40.642;-7.920;2022-12-29T06:57:05;5.20;;;2.63;;
60873;SDS011;46715;40.642;-7.920;2022-12-29T06:59:06;5.60;;;2.78;;
60873;SDS011;46715;40.642;-7.920;2022-12-29T07:01:10;4.18;;;2.88;;
60873;SDS011;46715;40.642;-7.920;2022-12-29T07:03:11;4.27;;;2.00;;
60873;SDS011;46715;40.642;-7.920;2022-12-29T07:05:12;5.50;;;1.73;;
60873;SDS011;46715;40.642;-7.920;2022-12-29T07:07:13;2.63;;;1.42;;
60873;SDS011;46715;40.642;-7.920;2022-12-29T07:09:14;3.03;;;1.50;;
60873;SDS011;46715;40.642;-7.920;2022-12-29T07:11:15;2.57;;;1.70;;
60873;SDS011;46715;40.642;-7.920;2022-12-29T07:13:16;2.00;;;1.50;;
60873;SDS011;46715;40.642;-7.920;2022-12-29T07:15:17;2.80;;;1.87;;
60873;SDS011;46715;40.642;-7.920;2022-12-29T07:17:18;3.80;;;1.95;;
60873;SDS011;46715;40.642;-7.920;2022-12-29T07:19:18;6.10;;;2.17;;
60873;SDS011;46715;40.642;-7.920;2022-12-29T07:21:19;2.78;;;1.80;;
60873;SDS011;46715;40.642;-7.920;2022-12-29T07:23:20;4.37;;;1.63;;
60873;SDS011;46715;40.642;-7.920;2022-12-29T07:25:21;4.57;;;2.10;;
60873;SDS011;46715;40.642;-7.920;2022-12-29T07:27:22;3.97;;;2.53;;
60873;SDS011;46715;40.642;-7.920;2022-12-29T07:29:23;11.97;;;2.80;;
60873;SDS011;46715;40.642;-7.920;2022-12-29T07:31:24;25.47;;;3.57;;
60873;SDS011;46715;40.642;-7.920;2022-12-29T07:33:25;11.27;;;2.80;;
60873;SDS011;46715;40.642;-7.920;2022-12-29T07:35:29;21.25;;;3.67;;
60873;SDS011;46715;40.642;-7.920;2022-12-29T07:37:32;32.22;;;4.07;;
60873;SDS011;46715;40.642;-7.920;2022-12-29T07:39:34;18.35;;;3.30;;
60873;SDS011;46715;40.642;-7.920;2022-12-29T07:41:35;54.83;;;4.93;;
60873;SDS011;46715;40.642;-7.920;2022-12-29T07:43:36;57.42;;;4.93;;
60873;SDS011;46715;40.642;-7.920;2022-12-29T07:45:57;51.55;;;4.25;;
60873;SDS011;46715;40.642;-7.920;2022-12-29T07:47:58;87.23;;;6.93;;
60873;SDS011;46715;40.642;-7.920;2022-12-29T07:49:59;44.57;;;5.57;;
60873;SDS011;46715;40.642;-7.920;2022-12-29T07:52:00;26.53;;;4.90;;
60873;SDS011;46715;40.642;-7.920;2022-12-29T07:54:00;122.37;;;8.27;;
60873;SDS011;46715;40.642;-7.920;2022-12-29T07:56:01;156.57;;;11.33;;
60873;SDS011;46715;40.642;-7.920;2022-12-29T07:58:02;100.53;;;9.05;;
60873;SDS011;46715;40.642;-7.920;2022-12-29T08:00:03;174.47;;;12.43;;
60873;SDS011;46715;40.642;-7.920;2022-12-29T08:02:12;135.65;;;9.07;;
60873;SDS011;46715;40.642;-7.920;2022-12-29T08:04:12;180.53;;;11.10;;
60873;SDS011;46715;40.642;-7.920;2022-12-29T08:06:13;177.13;;;10.03;;
60873;SDS011;46715;40.642;-7.920;2022-12-29T08:08:14;63.90;;;6.53;;
60873;SDS011;46715;40.642;-7.920;2022-12-29T08:10:15;48.25;;;6.45;;
60873;SDS011;46715;40.642;-7.920;2022-12-29T08:12:16;25.38;;;3.45;;
60873;SDS011;46715;40.642;-7.920;2022-12-29T08:14:18;14.45;;;3.40;;
60873;SDS011;46715;40.642;-7.920;2022-12-29T08:16:18;31.27;;;4.00;;
60873;SDS011;46715;40.642;-7.920;2022-12-29T08:18:19;61.80;;;5.77;;
60873;SDS011;46715;40.642;-7.920;2022-12-29T08:20:20;49.90;;;5.97;;
60873;SDS011;46715;40.642;-7.920;2022-12-29T08:22:22;27.70;;;4.27;;
60873;SDS011;46715;40.642;-7.920;2022-12-29T08:24:23;28.08;;;3.85;;
60873;SDS011;46715;40.642;-7.920;2022-12-29T08:26:24;5.47;;;2.20;;
60873;SDS011;46715;40.642;-7.920;2022-12-29T08:28:25;4.07;;;2.13;;
60873;SDS011;46715;40.642;-7.920;2022-12-29T08:30:26;30.98;;;4.10;;
60873;SDS011;46715;40.642;-7.920;2022-12-29T08:32:27;14.47;;;2.97;;
60873;SDS011;46715;40.642;-7.920;2022-12-29T08:34:30;17.55;;;2.80;;
60873;SDS011;46715;40.642;-7.920;2022-12-29T08:36:31;2.33;;;1.50;;
60873;SDS011;46715;40.642;-7.920;2022-12-29T08:38:32;5.60;;;1.87;;
60873;SDS011;46715;40.642;-7.920;2022-12-29T08:40:33;3.17;;;1.13;;
60873;SDS011;46715;40.642;-7.920;2022-12-29T08:42:36;2.40;;;1.48;;
60873;SDS011;46715;40.642;-7.920;2022-12-29T08:44:37;2.77;;;0.90;;
60873;SDS011;46715;40.642;-7.920;2022-12-29T08:46:38;1.13;;;0.90;;
60873;SDS011;46715;40.642;-7.920;2022-12-29T08:48:39;4.30;;;1.00;;
60873;SDS011;46715;40.642;-7.920;2022-12-29T08:50:40;3.40;;;1.40;;
60873;SDS011;46715;40.642;-7.920;2022-12-29T08:52:43;3.65;;;1.80;;
60873;SDS011;46715;40.642;-7.920;2022-12-29T08:54:52;2.85;;;1.70;;
60873;SDS011;46715;40.642;-7.920;2022-12-29T08:56:54;7.78;;;1.63;;
60873;SDS011;46715;40.642;-7.920;2022-12-29T08:58:59;4.72;;;1.80;;
60873;SDS011;46715;40.642;-7.920;2022-12-29T09:01:03;6.18;;;2.35;;
60873;SDS011;46715;40.642;-7.920;2022-12-29T09:03:04;3.50;;;1.85;;
60873;SDS011;46715;40.642;-7.920;2022-12-29T09:05:05;1.60;;;1.00;;
60873;SDS011;46715;40.642;-7.920;2022-12-29T09:07:06;0.93;;;0.60;;
60873;SDS011;46715;40.642;-7.920;2022-12-29T09:09:07;0.63;;;0.60;;
60873;SDS011;46715;40.642;-7.920;2022-12-29T09:11:09;0.68;;;0.50;;
60873;SDS011;46715;40.642;-7.920;2022-12-29T09:13:12;1.00;;;0.70;;
60873;SDS011;46715;40.642;-7.920;2022-12-29T09:15:14;1.40;;;1.25;;
60873;SDS011;46715;40.642;-7.920;2022-12-29T09:17:15;4.60;;;3.10;;
60873;SDS011;46715;40.642;-7.920;2022-12-29T09:19:35;3.50;;;2.45;;
60873;SDS011;46715;40.642;-7.920;2022-12-29T09:21:36;3.43;;;3.00;;
60873;SDS011;46715;40.642;-7.920;2022-12-29T09:23:36;2.47;;;1.73;;
60873;SDS011;46715;40.642;-7.920;2022-12-29T09:25:37;1.45;;;1.13;;
60873;SDS011;46715;40.642;-7.920;2022-12-29T09:27:39;1.50;;;0.90;;
60873;SDS011;46715;40.642;-7.920;2022-12-29T09:29:40;1.83;;;1.35;;
60873;SDS011;46715;40.642;-7.920;2022-12-29T09:31:41;3.73;;;1.30;;
60873;SDS011;46715;40.642;-7.920;2022-12-29T09:33:41;1.93;;;1.73;;
60873;SDS011;46715;40.642;-7.920;2022-12-29T09:35:43;2.60;;;1.87;;
60873;SDS011;46715;40.642;-7.920;2022-12-29T09:37:44;2.25;;;1.70;;
60873;SDS011;46715;40.642;-7.920;2022-12-29T09:39:45;2.00;;;1.67;;
60873;SDS011;46715;40.642;-7.920;2022-12-29T09:41:49;6.47;;;2.47;;
60873;SDS011;46715;40.642;-7.920;2022-12-29T09:44:06;3.50;;;2.08;;
60873;SDS011;46715;40.642;-7.920;2022-12-29T09:46:33;11.50;;;3.40;;
60873;SDS011;46715;40.642;-7.920;2022-12-29T09:48:40;15.88;;;3.67;;
60873;SDS011;46715;40.642;-7.920;2022-12-29T09:50:47;16.58;;;2.75;;
60873;SDS011;46715;40.642;-7.920;2022-12-29T09:55:35;29.05;;;3.45;;
60873;SDS011;46715;40.642;-7.920;2022-12-29T10:00:02;57.97;;;4.75;;
60873;SDS011;46715;40.642;-7.920;2022-12-29T10:04:42;20.98;;;2.90;;
60873;SDS011;46715;40.642;-7.920;2022-12-29T10:09:31;35.88;;;4.07;;
60873;SDS011;46715;40.642;-7.920;2022-12-29T10:16:14;14.82;;;3.65;;
60873;SDS011;46715;40.642;-7.920;2022-12-29T10:25:22;13.93;;;2.63;;
60873;SDS011;46715;40.642;-7.920;2022-12-29T10:27:26;10.20;;;1.92;;
60873;SDS011;46715;40.642;-7.920;2022-12-29T10:29:32;17.23;;;1.90;;
60873;SDS011;46715;40.642;-7.920;2022-12-29T10:31:47;1.92;;;1.50;;
60873;SDS011;46715;40.642;-7.920;2022-12-29T10:36:04;2.45;;;1.50;;
60873;SDS011;46715;40.642;-7.920;2022-12-29T10:38:24;1.70;;;1.40;;
60873;SDS011;46715;40.642;-7.920;2022-12-29T10:40:33;1.25;;;1.08;;
60873;SDS011;46715;40.642;-7.920;2022-12-29T10:42:45;2.22;;;1.30;;
60873;SDS011;46715;40.642;-7.920;2022-12-29T10:44:51;1.48;;;1.10;;
60873;SDS011;46715;40.642;-7.920;2022-12-29T10:46:55;2.08;;;1.30;;
60873;SDS011;46715;40.642;-7.920;2022-12-29T10:49:01;1.60;;;1.20;;
60873;SDS011;46715;40.642;-7.920;2022-12-29T10:51:03;2.33;;;1.30;;
60873;SDS011;46715;40.642;-7.920;2022-12-29T10:53:06;5.82;;;1.20;;
60873;SDS011;46715;40.642;-7.920;2022-12-29T10:55:09;4.13;;;1.70;;
60873;SDS011;46715;40.642;-7.920;2022-12-29T10:59:35;0.77;;;0.70;;
60873;SDS011;46715;40.642;-7.920;2022-12-29T11:01:42;1.23;;;0.90;;
60873;SDS011;46715;40.642;-7.920;2022-12-29T11:06:41;0.77;;;0.63;;
60873;SDS011;46715;40.642;-7.920;2022-12-29T11:08:50;0.80;;;0.80;;
60873;SDS011;46715;40.642;-7.920;2022-12-29T11:11:10;1.63;;;1.10;;
60873;SDS011;46715;40.642;-7.920;2022-12-29T11:15:13;1.17;;;0.73;;
60873;SDS011;46715;40.642;-7.920;2022-12-29T11:17:16;0.93;;;0.70;;
60873;SDS011;46715;40.642;-7.920;2022-12-29T11:19:19;1.33;;;0.90;;
60873;SDS011;46715;40.642;-7.920;2022-12-29T11:21:27;3.17;;;1.00;;
60873;SDS011;46715;40.642;-7.920;2022-12-29T11:23:41;1.20;;;1.00;;
60873;SDS011;46715;40.642;-7.920;2022-12-29T11:25:42;3.15;;;1.42;;
60873;SDS011;46715;40.642;-7.920;2022-12-29T11:27:54;6.00;;;1.63;;
60873;SDS011;46715;40.642;-7.920;2022-12-29T11:30:10;1.63;;;1.52;;
60873;SDS011;46715;40.642;-7.920;2022-12-29T11:32:27;2.63;;;1.80;;
60873;SDS011;46715;40.642;-7.920;2022-12-29T11:34:32;2.08;;;1.63;;
60873;SDS011;46715;40.642;-7.920;2022-12-29T11:36:36;4.30;;;2.25;;
60873;SDS011;46715;40.642;-7.920;2022-12-29T11:38:39;4.05;;;1.90;;
60873;SDS011;46715;40.642;-7.920;2022-12-29T11:40:42;3.85;;;2.10;;
60873;SDS011;46715;40.642;-7.920;2022-12-29T11:42:59;3.23;;;2.13;;
60873;SDS011;46715;40.642;-7.920;2022-12-29T11:47:21;3.40;;;1.90;;
60873;SDS011;46715;40.642;-7.920;2022-12-29T11:49:27;3.78;;;1.50;;
60873;SDS011;46715;40.642;-7.920;2022-12-29T11:51:34;3.37;;;2.00;;
60873;SDS011;46715;40.642;-7.920;2022-12-29T11:53:46;3.95;;;2.33;;
60873;SDS011;46715;40.642;-7.920;2022-12-29T11:56:10;4.75;;;2.28;;
60873;SDS011;46715;40.642;-7.920;2022-12-29T11:58:15;2.90;;;2.08;;
60873;SDS011;46715;40.642;-7.920;2022-12-29T12:00:18;3.03;;;1.93;;
60873;SDS011;46715;40.642;-7.920;2022-12-29T12:04:22;5.80;;;2.10;;
60873;SDS011;46715;40.642;-7.920;2022-12-29T12:06:29;3.45;;;1.88;;
60873;SDS011;46715;40.642;-7.920;2022-12-29T12:08:35;4.38;;;1.92;;
60873;SDS011;46715;40.642;-7.920;2022-12-29T12:10:50;5.38;;;1.70;;
60873;SDS011;46715;40.642;-7.920;2022-12-29T12:13:17;7.47;;;2.40;;
60873;SDS011;46715;40.642;-7.920;2022-12-29T12:15:31;6.97;;;1.42;;
60873;SDS011;46715;40.642;-7.920;2022-12-29T12:17:44;4.85;;;2.00;;
60873;SDS011;46715;40.642;-7.920;2022-12-29T12:19:58;4.28;;;1.77;;
60873;SDS011;46715;40.642;-7.920;2022-12-29T12:24:49;2.92;;;1.83;;
60873;SDS011;46715;40.642;-7.920;2022-12-29T12:27:31;5.90;;;1.85;;
60873;SDS011;46715;40.642;-7.920;2022-12-29T12:29:24;4.78;;;1.60;;
60873;SDS011;46715;40.642;-7.920;2022-12-29T12:33:47;5.65;;;2.30;;
60873;SDS011;46715;40.642;-7.920;2022-12-29T12:40:43;3.45;;;1.50;;
60873;SDS011;46715;40.642;-7.920;2022-12-29T12:49:56;4.90;;;2.25;;
60873;SDS011;46715;40.642;-7.920;2022-12-29T13:04:26;10.07;;;2.33;;
60873;SDS011;46715;40.642;-7.920;2022-12-29T13:06:51;6.22;;;2.90;;
60873;SDS011;46715;40.642;-7.920;2022-12-29T13:11:13;3.95;;;2.03;;
60873;SDS011;46715;40.642;-7.920;2022-12-29T13:13:33;3.15;;;1.95;;
60873;SDS011;46715;40.642;-7.920;2022-12-29T13:20:20;3.72;;;1.70;;
60873;SDS011;46715;40.642;-7.920;2022-12-29T13:31:35;3.35;;;1.83;;
60873;SDS011;46715;40.642;-7.920;2022-12-29T13:36:32;4.10;;;1.85;;
60873;SDS011;46715;40.642;-7.920;2022-12-29T13:38:39;3.88;;;2.10;;
60873;SDS011;46715;40.642;-7.920;2022-12-29T13:40:45;6.50;;;2.10;;
60873;SDS011;46715;40.642;-7.920;2022-12-29T13:42:51;7.70;;;2.22;;
60873;SDS011;46715;40.642;-7.920;2022-12-29T13:45:06;4.97;;;2.83;;
60873;SDS011;46715;40.642;-7.920;2022-12-29T13:49:44;6.28;;;2.10;;
60873;SDS011;46715;40.642;-7.920;2022-12-29T13:51:47;6.57;;;2.10;;
60873;SDS011;46715;40.642;-7.920;2022-12-29T13:54:16;5.85;;;2.55;;
60873;SDS011;46715;40.642;-7.920;2022-12-29T13:56:38;4.85;;;2.20;;
60873;SDS011;46715;40.642;-7.920;2022-12-29T13:59:02;7.70;;;4.05;;
60873;SDS011;46715;40.642;-7.920;2022-12-29T14:01:34;9.88;;;4.05;;
60873;SDS011;46715;40.642;-7.920;2022-12-29T14:06:14;9.73;;;3.97;;
60873;SDS011;46715;40.642;-7.920;2022-12-29T14:08:19;9.88;;;3.70;;
60873;SDS011;46715;40.642;-7.920;2022-12-29T14:10:29;6.35;;;4.13;;
60873;SDS011;46715;40.642;-7.920;2022-12-29T14:12:45;7.50;;;3.03;;
60873;SDS011;46715;40.642;-7.920;2022-12-29T14:14:53;5.35;;;2.97;;
60873;SDS011;46715;40.642;-7.920;2022-12-29T14:16:54;7.40;;;3.40;;
60873;SDS011;46715;40.642;-7.920;2022-12-29T14:18:55;5.68;;;3.17;;
60873;SDS011;46715;40.642;-7.920;2022-12-29T14:21:21;4.88;;;3.47;;
60873;SDS011;46715;40.642;-7.920;2022-12-29T14:23:35;8.38;;;3.65;;
60873;SDS011;46715;40.642;-7.920;2022-12-29T14:25:56;4.10;;;3.38;;
60873;SDS011;46715;40.642;-7.920;2022-12-29T14:27:58;7.13;;;3.42;;
60873;SDS011;46715;40.642;-7.920;2022-12-29T14:29:59;6.28;;;3.53;;
60873;SDS011;46715;40.642;-7.920;2022-12-29T14:31:59;5.93;;;3.00;;
60873;SDS011;46715;40.642;-7.920;2022-12-29T14:36:20;4.80;;;3.38;;
60873;SDS011;46715;40.642;-7.920;2022-12-29T14:38:26;5.72;;;3.22;;
60873;SDS011;46715;40.642;-7.920;2022-12-29T14:40:29;5.20;;;3.13;;
60873;SDS011;46715;40.642;-7.920;2022-12-29T14:42:29;6.43;;;2.70;;